createdAt,value
2023-04-02T00:01:46.515Z,98188.31
2023-04-02T00:04:38.039Z,98187.47
2023-04-02T00:07:30.555Z,98193.41
2023-04-02T00:09:57.696Z,98191.69
2023-04-02T00:12:24.447Z,98194.00
2023-04-02T00:14:54.543Z,98192.81
2023-04-02T00:17:24.653Z,98202.19
2023-04-02T00:19:57.377Z,98200.72
2023-04-02T00:22:29.916Z,98197.56
2023-04-02T00:24:57.278Z,98209.66
2023-04-02T00:27:23.924Z,98202.75
2023-04-02T00:29:53.514Z,98202.31
2023-04-02T00:32:27.569Z,98206.56
2023-04-02T00:34:54.956Z,98210.72
2023-04-02T00:37:25.158Z,98209.31
2023-04-02T00:39:57.192Z,98217.28
2023-04-02T00:42:25.202Z,98215.44
2023-04-02T00:44:54.654Z,98220.84
2023-04-02T00:47:27.542Z,98220.75
2023-04-02T00:50:01.509Z,98223.13
2023-04-02T00:52:32.082Z,98230.41
2023-04-02T00:55:06.677Z,98231.00
2023-04-02T00:57:33.950Z,98234.41
2023-04-02T01:00:22.653Z,98233.88
2023-04-02T01:03:35.384Z,98237.94
2023-04-02T01:06:15.429Z,98233.41
2023-04-02T01:09:17.207Z,98237.56
2023-04-02T01:12:02.168Z,98243.16
2023-04-02T01:14:42.452Z,98238.47
2023-04-02T01:17:21.377Z,98242.72
2023-04-02T01:19:54.054Z,98241.06
2023-04-02T01:22:51.794Z,98253.66
2023-04-02T01:25:41.431Z,98251.88
2023-04-02T01:28:22.248Z,98254.56
2023-04-02T01:30:54.414Z,98264.91
2023-04-02T01:33:23.600Z,98252.38
2023-04-02T01:36:00.252Z,98254.41
2023-04-02T01:38:32.867Z,98258.66
2023-04-02T01:41:08.685Z,98260.47
2023-04-02T01:43:40.641Z,98268.81
2023-04-02T01:46:26.058Z,98271.03
2023-04-02T01:48:54.706Z,98273.13
2023-04-02T01:51:33.457Z,98281.28
2023-04-02T01:54:04.475Z,98283.63
2023-04-02T01:56:31.152Z,98292.13
2023-04-02T01:58:58.965Z,98288.88
2023-04-02T02:01:36.402Z,98296.16
2023-04-02T02:04:03.202Z,98298.97
2023-04-02T02:06:31.289Z,98298.66
2023-04-02T02:09:04.133Z,98298.13
2023-04-02T02:11:33.411Z,98296.75
2023-04-02T02:14:02.137Z,98305.75
2023-04-02T02:16:31.841Z,98305.34
2023-04-02T02:19:02.084Z,98303.06
2023-04-02T02:21:28.841Z,98307.81
2023-04-02T02:23:57.084Z,98308.31
2023-04-02T02:26:27.149Z,98312.53
2023-04-02T02:28:57.043Z,98318.50
2023-04-02T02:31:29.823Z,98326.97
2023-04-02T02:34:22.812Z,98330.25
2023-04-02T02:37:00.278Z,98324.50
2023-04-02T02:39:36.333Z,98334.25
2023-04-02T02:42:24.737Z,98338.16
2023-04-02T02:44:55.008Z,98349.16
2023-04-02T02:47:28.265Z,98348.06
2023-04-02T02:50:01.713Z,98348.66
2023-04-02T02:52:32.178Z,98353.22
2023-04-02T02:55:12.366Z,98350.78
2023-04-02T02:58:09.647Z,98354.94
2023-04-02T03:00:48.077Z,98366.13
2023-04-02T03:03:20.025Z,98365.19
2023-04-02T03:06:01.663Z,98362.22
2023-04-02T03:08:41.554Z,98363.84
2023-04-02T03:11:23.777Z,98370.38
2023-04-02T03:13:56.024Z,98370.97
2023-04-02T03:16:35.342Z,98372.81
2023-04-02T03:19:08.528Z,98380.28
2023-04-02T03:22:03.154Z,98379.38
2023-04-02T03:24:45.877Z,98389.75
2023-04-02T03:27:23.967Z,98388.44
2023-04-02T03:30:16.793Z,98395.13
2023-04-02T03:32:46.174Z,98399.84
2023-04-02T03:35:21.584Z,98403.06
2023-04-02T03:37:59.095Z,98409.53
2023-04-02T03:40:31.506Z,98414.13
2023-04-02T03:43:11.260Z,98408.50
2023-04-02T03:45:51.309Z,98414.94
2023-04-02T03:48:26.441Z,98413.75
2023-04-02T03:51:06.645Z,98414.53
2023-04-02T03:53:34.284Z,98425.38
2023-04-02T03:56:02.348Z,98427.78
2023-04-02T03:58:41.259Z,98431.47
2023-04-02T04:01:24.155Z,98438.69
2023-04-02T04:03:54.368Z,98442.63
2023-04-02T04:06:25.007Z,98442.63
2023-04-02T04:09:00.516Z,98447.09
2023-04-02T04:11:36.431Z,98448.38
2023-04-02T04:14:12.810Z,98456.84
2023-04-02T04:16:55.952Z,98457.97
2023-04-02T04:19:38.225Z,98464.81
2023-04-02T04:22:19.638Z,98463.38
2023-04-02T04:24:50.253Z,98465.50
2023-04-02T04:27:33.595Z,98464.66
2023-04-02T04:30:18.337Z,98474.56
2023-04-02T04:32:58.295Z,98481.06
2023-04-02T04:35:31.327Z,98479.72
2023-04-02T04:38:04.754Z,98480.16
2023-04-02T04:40:36.175Z,98491.78
2023-04-02T04:43:11.005Z,98499.25
2023-04-02T04:45:50.446Z,98496.47
2023-04-02T04:48:26.869Z,98497.97
2023-04-02T04:51:05.950Z,98501.94
2023-04-02T04:53:33.275Z,98511.63
2023-04-02T04:56:18.200Z,98511.72
2023-04-02T04:59:18.304Z,98526.59
2023-04-02T05:02:11.623Z,98539.88
2023-04-02T05:04:42.311Z,98545.84
2023-04-02T05:07:25.300Z,98548.03
2023-04-02T05:10:31.017Z,98558.94
2023-04-02T05:13:05.632Z,98566.13
2023-04-02T05:16:23.744Z,98570.28
2023-04-02T05:19:00.817Z,98576.75
2023-04-02T05:21:36.793Z,98584.84
2023-04-02T05:24:32.138Z,98593.69
2023-04-02T05:27:13.637Z,98597.16
2023-04-02T05:29:43.540Z,98601.28
2023-04-02T05:32:22.076Z,98608.44
2023-04-02T05:34:55.078Z,98608.50
2023-04-02T05:37:26.177Z,98610.97
2023-04-02T05:39:57.632Z,98616.44
2023-04-02T05:42:29.201Z,98622.94
2023-04-02T05:45:20.873Z,98624.06
2023-04-02T05:47:51.852Z,98627.63
2023-04-02T05:50:37.060Z,98627.84
2023-04-02T05:53:27.602Z,98641.25
2023-04-02T05:56:00.477Z,98650.16
2023-04-02T05:58:38.458Z,98646.13
2023-04-02T06:01:21.937Z,98655.09
2023-04-02T06:04:21.733Z,98661.28
2023-04-02T06:07:24.807Z,98669.25
2023-04-02T06:10:37.631Z,98680.59
2023-04-02T06:13:14.882Z,98682.50
2023-04-02T06:15:44.985Z,98692.13
2023-04-02T06:18:20.724Z,98698.09
2023-04-02T06:20:48.938Z,98705.69
2023-04-02T06:23:25.492Z,98714.25
2023-04-02T06:26:10.372Z,98721.31
2023-04-02T06:28:46.530Z,98727.16
2023-04-02T06:31:40.912Z,98727.16
2023-04-02T06:34:16.661Z,98731.06
2023-04-02T06:36:56.954Z,98739.69
2023-04-02T06:39:27.039Z,98747.38
2023-04-02T06:42:01.292Z,98756.41
2023-04-02T06:44:59.867Z,98762.75
2023-04-02T06:47:57.223Z,98761.72
2023-04-02T06:54:53.734Z,98779.69
2023-04-02T06:58:12.122Z,98780.50
2023-04-02T07:00:42.510Z,98795.22
2023-04-02T07:03:23.218Z,98799.50
2023-04-02T07:05:50.954Z,98805.78
2023-04-02T07:08:18.159Z,98816.00
2023-04-02T07:11:10.829Z,98812.25
2023-04-02T07:13:37.636Z,98822.38
2023-04-02T07:16:04.662Z,98822.56
2023-04-02T07:18:34.136Z,98830.34
2023-04-02T07:21:04.430Z,98839.94
2023-04-02T07:23:31.009Z,98846.78
2023-04-02T07:25:58.437Z,98845.38
2023-04-02T07:28:25.799Z,98850.69
2023-04-02T07:30:52.754Z,98853.56
2023-04-02T07:33:22.561Z,98860.78
2023-04-02T07:35:50.351Z,98871.06
2023-04-02T07:38:17.216Z,98879.84
2023-04-02T07:40:43.968Z,98886.91
2023-04-02T07:43:11.171Z,98891.09
2023-04-02T07:45:38.207Z,98889.97
2023-04-02T07:48:10.063Z,98901.97
2023-04-02T07:50:36.730Z,98899.53
2023-04-02T07:53:03.864Z,98904.94
2023-04-02T07:55:30.733Z,98905.50
2023-04-02T07:57:59.636Z,98901.56
2023-04-02T08:00:32.960Z,98922.75
2023-04-02T08:02:59.561Z,98923.84
2023-04-02T08:05:26.367Z,98928.00
2023-04-02T08:07:57.237Z,98925.91
2023-04-02T08:10:24.728Z,98929.38
2023-04-02T08:12:51.731Z,98933.72
2023-04-02T08:15:20.892Z,98943.22
2023-04-02T08:17:51.336Z,98941.13
2023-04-02T08:20:24.769Z,98943.56
2023-04-02T08:22:51.940Z,98958.25
2023-04-02T08:25:22.046Z,98962.34
2023-04-02T08:27:49.749Z,98962.75
2023-04-02T08:30:57.730Z,98963.63
2023-04-02T08:33:38.458Z,98979.03
2023-04-02T08:36:19.577Z,98975.84
2023-04-02T08:38:47.424Z,98989.91
2023-04-02T08:41:24.602Z,98996.69
2023-04-02T08:44:02.477Z,98991.13
2023-04-02T08:46:41.029Z,99001.44
2023-04-02T08:49:24.938Z,99009.47
2023-04-02T08:51:52.156Z,99016.38
2023-04-02T08:54:25.710Z,99014.44
2023-04-02T08:57:02.152Z,99023.72
2023-04-02T08:59:37.820Z,99027.34
2023-04-02T09:02:13.433Z,99033.47
2023-04-02T09:04:41.626Z,99037.25
2023-04-02T09:07:14.173Z,99038.13
2023-04-02T09:09:41.168Z,99049.56
2023-04-02T09:12:18.522Z,99056.41
2023-04-02T09:15:10.540Z,99058.19
2023-04-02T09:17:50.557Z,99065.59
2023-04-02T09:28:05.735Z,99074.91
2023-04-02T09:30:40.774Z,99093.56
2023-04-02T09:33:08.483Z,99091.31
2023-04-02T09:35:40.757Z,99102.59
2023-04-02T09:38:12.491Z,99104.84
2023-04-02T09:40:59.830Z,99097.94
2023-04-02T09:43:37.921Z,99106.22
2023-04-02T09:46:06.260Z,99113.59
2023-04-02T09:48:43.979Z,99117.66
2023-04-02T09:51:24.328Z,99124.06
2023-04-02T09:54:05.034Z,99120.88
2023-04-02T09:56:39.840Z,99140.34
2023-04-02T09:59:06.368Z,99144.88
2023-04-02T10:01:34.369Z,99142.66
2023-04-02T10:04:03.407Z,99153.34
2023-04-02T10:06:31.288Z,99152.91
2023-04-02T10:08:58.237Z,99159.41
2023-04-02T10:11:43.829Z,99154.28
2023-04-02T10:27:45.114Z,99192.84
2023-04-02T10:30:25.160Z,99187.88
2023-04-02T10:43:13.284Z,99210.00
2023-04-02T10:46:54.442Z,99218.56
2023-04-02T11:14:07.743Z,99267.50
2023-04-02T11:17:12.496Z,99268.16
2023-04-02T11:23:35.833Z,99274.84
2023-04-02T11:26:43.854Z,99282.69
2023-04-02T11:33:36.513Z,99293.16
2023-04-02T11:37:18.726Z,99300.72
2023-04-02T11:39:51.522Z,99314.16
2023-04-02T11:49:40.025Z,99327.34
2023-04-02T11:55:39.342Z,99335.59
2023-04-02T11:58:58.861Z,99337.72
2023-04-02T12:02:19.114Z,99335.56
2023-04-02T12:05:27.125Z,99349.44
2023-04-02T12:08:31.971Z,99359.75
2023-04-02T12:11:14.688Z,99364.94
2023-04-02T12:14:02.635Z,99363.31
2023-04-02T12:17:01.258Z,99385.59
2023-04-02T12:19:32.226Z,99377.38
2023-04-02T12:22:17.610Z,99375.28
2023-04-02T12:25:10.470Z,99385.72
2023-04-02T12:27:48.525Z,99385.97
2023-04-02T12:33:58.468Z,99400.53
2023-04-02T12:36:26.355Z,99405.88
2023-04-02T12:45:13.000Z,99417.31
2023-04-02T12:48:05.569Z,99419.13
2023-04-02T12:53:51.394Z,99445.09
2023-04-02T12:56:21.744Z,99433.81
2023-04-02T12:59:12.420Z,99442.63
2023-04-02T13:01:59.125Z,99432.63
2023-04-02T13:04:27.071Z,99453.00
2023-04-02T13:07:00.612Z,99448.19
2023-04-02T13:09:36.950Z,99460.56
2023-04-02T13:12:07.426Z,99456.00
2023-04-02T13:14:44.162Z,99448.59
2023-04-02T13:21:14.735Z,99475.56
2023-04-02T13:24:09.988Z,99479.94
2023-04-02T13:26:49.950Z,99474.78
2023-04-02T13:29:22.496Z,99466.59
2023-04-02T13:32:11.551Z,99485.00
2023-04-02T13:38:28.444Z,99491.53
2023-04-02T13:42:14.142Z,99518.06
2023-04-02T14:02:07.182Z,99524.59
2023-04-02T14:05:23.875Z,99529.41
2023-04-02T14:11:57.893Z,99541.66
2023-04-02T14:14:46.556Z,99546.88
2023-04-02T14:17:34.975Z,99550.63
2023-04-02T14:20:17.236Z,99559.94
2023-04-02T14:22:52.707Z,99574.22
2023-04-02T14:25:42.247Z,99572.38
2023-04-02T14:28:11.892Z,99571.75
2023-04-02T14:30:41.688Z,99560.28
2023-04-02T14:33:23.714Z,99570.31
2023-04-02T14:35:59.505Z,99567.03
2023-04-02T14:38:35.724Z,99566.63
2023-04-02T14:41:16.557Z,99570.63
2023-04-02T14:43:53.274Z,99563.97
2023-04-02T14:46:24.652Z,99586.44
2023-04-02T14:49:03.927Z,99577.31
2023-04-02T14:51:36.988Z,99585.78
2023-04-02T14:54:28.093Z,99591.06
2023-04-02T14:57:00.611Z,99583.19
2023-04-02T14:59:39.750Z,99597.59
2023-04-02T15:02:18.885Z,99598.84
2023-04-02T15:05:01.620Z,99596.09
2023-04-02T15:07:37.110Z,99606.47
2023-04-02T15:10:30.877Z,99615.41
2023-04-02T15:13:00.087Z,99611.91
2023-04-02T15:15:40.068Z,99620.81
2023-04-02T15:18:16.446Z,99617.63
2023-04-02T15:20:57.713Z,99616.66
2023-04-02T15:23:42.631Z,99616.84
2023-04-02T15:26:18.791Z,99614.94
2023-04-02T15:29:25.904Z,99617.22
2023-04-02T15:32:02.879Z,99618.66
2023-04-02T15:34:50.217Z,99626.53
2023-04-02T15:37:22.580Z,99634.34
2023-04-02T15:39:56.724Z,99641.78
2023-04-02T15:42:28.124Z,99650.94
2023-04-02T15:45:06.971Z,99656.69
2023-04-02T15:47:35.620Z,99641.81
2023-04-02T15:50:23.149Z,99649.75
2023-04-02T15:52:55.787Z,99660.84
2023-04-02T15:55:27.893Z,99661.97
2023-04-02T15:58:17.897Z,99661.06
2023-04-02T16:01:06.022Z,99662.88
2023-04-02T16:03:32.574Z,99666.31
2023-04-02T16:06:25.324Z,99667.66
2023-04-02T16:09:17.858Z,99674.13
2023-04-02T16:11:44.364Z,99665.56
2023-04-02T16:14:26.220Z,99678.59
2023-04-02T16:16:58.896Z,99679.97
2023-04-02T16:19:40.050Z,99680.13
2023-04-02T16:22:29.799Z,99691.38
2023-04-02T16:25:01.407Z,99687.44
2023-04-02T16:27:38.221Z,99691.88
2023-04-02T16:30:39.105Z,99705.19
2023-04-02T16:33:33.030Z,99705.25
2023-04-02T16:36:15.743Z,99723.97
2023-04-02T16:39:13.355Z,99712.28
2023-04-02T16:41:50.599Z,99713.59
2023-04-02T16:44:42.786Z,99714.25
2023-04-02T16:47:12.571Z,99731.47
2023-04-02T16:50:11.421Z,99724.81
2023-04-02T16:53:19.432Z,99731.91
2023-04-02T16:56:06.083Z,99731.69
2023-04-02T16:58:44.883Z,99730.25
2023-04-02T17:01:24.778Z,99737.22
2023-04-02T17:04:25.926Z,99736.22
2023-04-02T17:06:58.466Z,99746.84
2023-04-02T17:09:36.916Z,99754.72
2023-04-02T17:12:16.239Z,99751.00
2023-04-02T17:15:14.238Z,99759.69
2023-04-02T17:17:54.855Z,99756.88
2023-04-02T17:20:24.005Z,99763.34
2023-04-02T17:22:51.193Z,99768.25
2023-04-02T17:25:23.214Z,99765.53
2023-04-02T17:27:55.030Z,99774.69
2023-04-02T17:30:51.360Z,99781.25
2023-04-02T17:33:19.002Z,99780.06
2023-04-02T17:36:32.903Z,99787.25
2023-04-02T17:39:25.580Z,99789.31
2023-04-02T17:42:05.288Z,99812.78
2023-04-02T17:45:02.655Z,99808.41
2023-04-02T17:48:12.741Z,99820.50
2023-04-02T17:51:02.868Z,99828.22
2023-04-02T17:53:48.335Z,99821.78
2023-04-02T17:56:17.970Z,99833.50
2023-04-02T17:59:14.251Z,99839.50
2023-04-02T18:02:02.218Z,99858.88
2023-04-02T18:04:35.432Z,99864.88
2023-04-02T18:07:28.214Z,99866.69
2023-04-02T18:10:07.201Z,99872.00
2023-04-02T18:12:39.877Z,99870.81
2023-04-02T18:15:34.290Z,99880.44
2023-04-02T18:18:03.987Z,99887.50
2023-04-02T18:20:53.795Z,99877.72
2023-04-02T18:23:36.520Z,99894.31
2023-04-02T18:26:36.428Z,99890.16
2023-04-02T18:29:18.240Z,99892.50
2023-04-02T18:31:46.264Z,99899.50
2023-04-02T18:34:31.044Z,99901.84
2023-04-02T18:37:47.712Z,99916.31
2023-04-02T18:40:36.312Z,99916.97
2023-04-02T18:43:29.623Z,99916.09
2023-04-02T18:46:05.682Z,99919.41
2023-04-02T18:48:47.588Z,99924.69
2023-04-02T18:51:24.692Z,99923.78
2023-04-02T18:54:16.862Z,99926.34
2023-04-02T18:56:43.584Z,99937.16
2023-04-02T18:59:33.687Z,99937.31
2023-04-02T19:02:15.765Z,99943.16
2023-04-02T19:04:52.315Z,99950.88
2023-04-02T19:07:21.384Z,99949.13
2023-04-02T19:09:51.746Z,99953.69
2023-04-02T19:12:21.520Z,99951.72
2023-04-02T19:14:50.986Z,99958.63
2023-04-02T19:17:28.268Z,99957.91
2023-04-02T19:20:39.848Z,99954.16
2023-04-02T19:23:12.579Z,99956.69
2023-04-02T19:25:52.294Z,99949.72
2023-04-02T19:28:25.027Z,99961.06
2023-04-02T19:30:51.633Z,99968.13
2023-04-02T19:33:34.869Z,99968.19
2023-04-02T19:36:20.035Z,99960.63
2023-04-02T19:38:55.936Z,99959.44
2023-04-02T19:41:41.392Z,99968.66
2023-04-02T19:44:14.337Z,99969.53
2023-04-02T19:46:41.471Z,99974.91
2023-04-02T19:49:24.823Z,99972.31
2023-04-02T19:51:51.920Z,99972.41
2023-04-02T19:54:18.914Z,99978.56
2023-04-02T19:56:45.940Z,99980.47
2023-04-02T19:59:18.207Z,99978.75
2023-04-02T20:01:46.373Z,99985.03
2023-04-02T20:04:13.287Z,99982.38
2023-04-02T20:06:39.990Z,99990.13
2023-04-02T20:09:08.227Z,99988.50
2023-04-02T20:11:36.483Z,99994.66
2023-04-02T20:14:03.701Z,99995.44
2023-04-02T20:16:30.288Z,99998.94
2023-04-02T20:18:57.022Z,100003.31
2023-04-02T20:21:23.555Z,100005.81
2023-04-02T20:23:56.113Z,100004.97
2023-04-02T20:26:23.261Z,100005.06
2023-04-02T20:28:50.024Z,100009.31
2023-04-02T20:31:18.445Z,100012.78
2023-04-02T20:33:45.821Z,100007.50
2023-04-02T20:36:15.947Z,100014.38
2023-04-02T20:38:43.539Z,100026.56
2023-04-02T20:41:10.923Z,100030.03
2023-04-02T20:43:40.648Z,100030.06
2023-04-02T20:46:10.087Z,100037.88
2023-04-02T20:48:37.834Z,100038.81
2023-04-02T20:51:06.496Z,100037.97
2023-04-02T20:53:34.633Z,100040.59
2023-04-02T20:56:09.195Z,100038.84
2023-04-02T20:58:37.218Z,100044.09
2023-04-02T21:01:11.911Z,100042.31
2023-04-02T21:03:39.904Z,100050.97
2023-04-02T21:06:12.838Z,100047.53
2023-04-02T21:08:39.488Z,100045.81
2023-04-02T21:11:06.977Z,100057.09
2023-04-02T21:13:38.037Z,100056.16
2023-04-02T21:16:12.007Z,100056.19
2023-04-02T21:18:38.544Z,100054.44
2023-04-02T21:21:06.848Z,100063.13
2023-04-02T21:23:34.173Z,100053.56
2023-04-02T21:26:04.270Z,100066.56
2023-04-02T21:28:30.862Z,100064.00
2023-04-02T21:31:12.061Z,100073.50
2023-04-02T21:33:44.717Z,100076.97
2023-04-02T21:36:13.963Z,100075.22
2023-04-02T21:38:45.187Z,100070.91
2023-04-02T21:41:38.734Z,100074.41
2023-04-02T21:44:07.083Z,100083.97
2023-04-02T21:46:36.731Z,100073.50
2023-04-02T21:49:03.713Z,100074.41
2023-04-02T21:51:33.066Z,100083.97
2023-04-02T21:54:00.728Z,100078.72
2023-04-02T21:56:29.847Z,100076.06
2023-04-02T21:58:58.164Z,100085.59
2023-04-02T22:01:30.280Z,100081.25
2023-04-02T22:03:59.625Z,100083.88
2023-04-02T22:06:28.653Z,100077.78
2023-04-02T22:08:59.976Z,100089.09
2023-04-02T22:11:32.563Z,100088.25
2023-04-02T22:13:59.880Z,100082.13
2023-04-02T22:16:28.608Z,100083.00
2023-04-02T22:18:57.272Z,100087.31
2023-04-02T22:21:24.410Z,100085.53
2023-04-02T22:23:51.425Z,100093.31
2023-04-02T22:26:20.787Z,100084.63
2023-04-02T22:28:47.351Z,100102.00
2023-04-02T22:31:16.554Z,100091.56
2023-04-02T22:33:44.509Z,100094.13
2023-04-02T22:36:12.077Z,100086.34
2023-04-02T22:38:39.007Z,100090.69
2023-04-02T22:41:13.344Z,100090.69
2023-04-02T22:43:41.603Z,100098.53
2023-04-02T22:46:09.317Z,100095.13
2023-04-02T22:48:36.378Z,100098.59
2023-04-02T22:51:03.285Z,100098.56
2023-04-02T22:53:30.049Z,100100.38
2023-04-02T22:56:03.162Z,100104.72
2023-04-02T22:58:29.832Z,100102.06
2023-04-02T23:00:56.525Z,100104.63
2023-04-02T23:03:23.039Z,100101.19
2023-04-02T23:06:05.242Z,100102.94
2023-04-02T23:08:31.781Z,100110.75
2023-04-02T23:11:21.267Z,100101.22
2023-04-02T23:13:50.318Z,100102.91
2023-04-02T23:16:17.897Z,100102.91
2023-04-02T23:18:47.810Z,100106.38
2023-04-02T23:21:15.957Z,100099.44
2023-04-02T23:23:42.840Z,100102.94
2023-04-02T23:26:18.419Z,100108.09
2023-04-02T23:28:45.180Z,100107.19
2023-04-02T23:31:18.569Z,100114.13
2023-04-02T23:33:45.831Z,100124.56
2023-04-02T23:36:24.662Z,100119.28
2023-04-02T23:38:55.111Z,100119.34
2023-04-02T23:41:23.810Z,100112.38
2023-04-02T23:43:51.031Z,100114.97
2023-04-02T23:46:17.737Z,100111.53
2023-04-02T23:48:45.925Z,100114.19
2023-04-02T23:51:13.329Z,100118.50
2023-04-02T23:53:40.055Z,100115.03
2023-04-02T23:56:06.903Z,100118.53
2023-04-02T23:58:33.468Z,100115.88
